sensor_id;sensor_type;location;lat;lon;timestamp;temperature;humidity
26336;DHT22;14047;50.936;4.654;2023-02-04T00:01:25;11.00;99.90
26336;DHT22;14047;50.936;4.654;2023-02-04T00:03:51;11.00;99.90
26336;DHT22;14047;50.936;4.654;2023-02-04T00:06:17;11.10;99.90
26336;DHT22;14047;50.936;4.654;2023-02-04T00:08:43;11.00;99.90
26336;DHT22;14047;50.936;4.654;2023-02-04T00:11:09;11.00;99.90
26336;DHT22;14047;50.936;4.654;2023-02-04T00:13:35;11.10;99.90
26336;DHT22;14047;50.936;4.654;2023-02-04T00:16:01;11.00;99.90
26336;DHT22;14047;50.936;4.654;2023-02-04T00:18:28;11.00;99.90
26336;DHT22;14047;50.936;4.654;2023-02-04T00:20:54;11.00;99.90
26336;DHT22;14047;50.936;4.654;2023-02-04T00:23:20;11.00;99.90
26336;DHT22;14047;50.936;4.654;2023-02-04T00:25:46;11.00;99.90
26336;DHT22;14047;50.936;4.654;2023-02-04T00:28:12;10.90;99.90
26336;DHT22;14047;50.936;4.654;2023-02-04T00:30:37;11.10;99.90
26336;DHT22;14047;50.936;4.654;2023-02-04T00:33:03;11.10;99.90
26336;DHT22;14047;50.936;4.654;2023-02-04T00:35:29;11.10;99.90
26336;DHT22;14047;50.936;4.654;2023-02-04T00:37:55;11.00;99.90
26336;DHT22;14047;50.936;4.654;2023-02-04T00:40:21;11.00;99.90
26336;DHT22;14047;50.936;4.654;2023-02-04T00:42:47;11.00;99.90
26336;DHT22;14047;50.936;4.654;2023-02-04T00:45:13;11.00;99.90
26336;DHT22;14047;50.936;4.654;2023-02-04T00:47:39;10.90;99.90
26336;DHT22;14047;50.936;4.654;2023-02-04T00:50:05;10.90;99.90
26336;DHT22;14047;50.936;4.654;2023-02-04T00:52:32;11.00;99.90
26336;DHT22;14047;50.936;4.654;2023-02-04T00:54:57;10.90;99.90
26336;DHT22;14047;50.936;4.654;2023-02-04T00:57:23;10.80;99.90
26336;DHT22;14047;50.936;4.654;2023-02-04T00:59:49;10.90;99.90
26336;DHT22;14047;50.936;4.654;2023-02-04T01:02:16;10.80;99.90
26336;DHT22;14047;50.936;4.654;2023-02-04T01:04:42;10.90;99.90
26336;DHT22;14047;50.936;4.654;2023-02-04T01:07:08;10.90;99.90
26336;DHT22;14047;50.936;4.654;2023-02-04T01:09:34;11.00;99.90
26336;DHT22;14047;50.936;4.654;2023-02-04T01:12:00;11.00;99.90
26336;DHT22;14047;50.936;4.654;2023-02-04T01:14:26;11.00;99.90
26336;DHT22;14047;50.936;4.654;2023-02-04T01:16:52;11.00;99.90
26336;DHT22;14047;50.936;4.654;2023-02-04T01:19:18;11.00;99.90
26336;DHT22;14047;50.936;4.654;2023-02-04T01:21:45;10.90;99.90
26336;DHT22;14047;50.936;4.654;2023-02-04T01:24:11;10.90;99.90
26336;DHT22;14047;50.936;4.654;2023-02-04T01:26:57;11.00;99.90
26336;DHT22;14047;50.936;4.654;2023-02-04T01:29:23;11.00;99.90
26336;DHT22;14047;50.936;4.654;2023-02-04T01:31:49;10.80;99.90
26336;DHT22;14047;50.936;4.654;2023-02-04T01:34:15;10.80;99.90
26336;DHT22;14047;50.936;4.654;2023-02-04T01:36:43;10.60;99.90
26336;DHT22;14047;50.936;4.654;2023-02-04T01:39:09;10.80;99.90
26336;DHT22;14047;50.936;4.654;2023-02-04T01:41:35;10.60;99.90
26336;DHT22;14047;50.936;4.654;2023-02-04T01:44:01;10.70;99.90
26336;DHT22;14047;50.936;4.654;2023-02-04T01:46:27;10.50;99.90
26336;DHT22;14047;50.936;4.654;2023-02-04T01:48:53;10.50;99.90
26336;DHT22;14047;50.936;4.654;2023-02-04T01:51:27;10.50;99.90
26336;DHT22;14047;50.936;4.654;2023-02-04T01:53:58;10.10;99.90
26336;DHT22;14047;50.936;4.654;2023-02-04T01:56:26;9.60;99.90
26336;DHT22;14047;50.936;4.654;2023-02-04T01:58:54;9.20;99.90
26336;DHT22;14047;50.936;4.654;2023-02-04T02:01:41;9.30;99.90
26336;DHT22;14047;50.936;4.654;2023-02-04T02:04:14;9.10;99.90
26336;DHT22;14047;50.936;4.654;2023-02-04T02:06:46;9.10;99.90
26336;DHT22;14047;50.936;4.654;2023-02-04T02:09:13;8.90;99.90
26336;DHT22;14047;50.936;4.654;2023-02-04T02:11:39;8.80;99.90
26336;DHT22;14047;50.936;4.654;2023-02-04T02:14:05;9.00;99.90
26336;DHT22;14047;50.936;4.654;2023-02-04T02:16:31;9.20;99.90
26336;DHT22;14047;50.936;4.654;2023-02-04T02:18:57;9.20;99.90
26336;DHT22;14047;50.936;4.654;2023-02-04T02:21:54;9.10;99.90
26336;DHT22;14047;50.936;4.654;2023-02-04T02:26:49;8.80;99.90
26336;DHT22;14047;50.936;4.654;2023-02-04T02:29:15;8.70;99.90
26336;DHT22;14047;50.936;4.654;2023-02-04T02:31:41;8.80;99.90
26336;DHT22;14047;50.936;4.654;2023-02-04T02:34:07;8.90;99.90
26336;DHT22;14047;50.936;4.654;2023-02-04T02:36:35;9.10;99.90
26336;DHT22;14047;50.936;4.654;2023-02-04T02:39:01;9.20;99.90
26336;DHT22;14047;50.936;4.654;2023-02-04T02:41:27;9.30;99.90
26336;DHT22;14047;50.936;4.654;2023-02-04T02:43:53;9.50;99.90
26336;DHT22;14047;50.936;4.654;2023-02-04T02:46:19;9.70;99.90
26336;DHT22;14047;50.936;4.654;2023-02-04T02:48:46;9.90;99.90
26336;DHT22;14047;50.936;4.654;2023-02-04T02:51:12;10.00;99.90
26336;DHT22;14047;50.936;4.654;2023-02-04T02:53:38;10.20;99.90
26336;DHT22;14047;50.936;4.654;2023-02-04T02:56:04;10.30;99.90
26336;DHT22;14047;50.936;4.654;2023-02-04T02:58:34;10.50;99.90
26336;DHT22;14047;50.936;4.654;2023-02-04T03:01:06;10.60;99.90
26336;DHT22;14047;50.936;4.654;2023-02-04T03:03:49;10.70;99.90
26336;DHT22;14047;50.936;4.654;2023-02-04T03:06:19;10.80;99.90
26336;DHT22;14047;50.936;4.654;2023-02-04T03:08:50;10.80;99.90
26336;DHT22;14047;50.936;4.654;2023-02-04T03:11:17;10.80;99.90
26336;DHT22;14047;50.936;4.654;2023-02-04T03:13:43;10.80;99.90
26336;DHT22;14047;50.936;4.654;2023-02-04T03:16:10;10.80;99.90
26336;DHT22;14047;50.936;4.654;2023-02-04T03:18:36;10.80;99.90
26336;DHT22;14047;50.936;4.654;2023-02-04T03:21:03;10.90;99.90
26336;DHT22;14047;50.936;4.654;2023-02-04T03:23:32;10.90;99.90
26336;DHT22;14047;50.936;4.654;2023-02-04T03:25:59;10.90;99.90
26336;DHT22;14047;50.936;4.654;2023-02-04T03:28:25;10.70;99.90
26336;DHT22;14047;50.936;4.654;2023-02-04T03:30:51;10.80;99.90
26336;DHT22;14047;50.936;4.654;2023-02-04T03:33:26;10.80;99.90
26336;DHT22;14047;50.936;4.654;2023-02-04T03:35:59;10.90;99.90
26336;DHT22;14047;50.936;4.654;2023-02-04T03:38:25;10.90;99.90
26336;DHT22;14047;50.936;4.654;2023-02-04T03:40:51;11.00;99.90
26336;DHT22;14047;50.936;4.654;2023-02-04T03:43:17;11.00;99.90
26336;DHT22;14047;50.936;4.654;2023-02-04T03:45:43;11.00;99.90
26336;DHT22;14047;50.936;4.654;2023-02-04T03:48:09;10.90;99.90
26336;DHT22;14047;50.936;4.654;2023-02-04T03:50:35;11.00;99.90
26336;DHT22;14047;50.936;4.654;2023-02-04T03:53:01;11.00;99.90
26336;DHT22;14047;50.936;4.654;2023-02-04T03:55:27;11.10;99.90
26336;DHT22;14047;50.936;4.654;2023-02-04T03:57:53;11.10;99.90
26336;DHT22;14047;50.936;4.654;2023-02-04T04:00:19;11.00;99.90
26336;DHT22;14047;50.936;4.654;2023-02-04T04:02:45;11.00;99.90
26336;DHT22;14047;50.936;4.654;2023-02-04T04:05:11;11.00;99.90
26336;DHT22;14047;50.936;4.654;2023-02-04T04:07:37;11.00;99.90
26336;DHT22;14047;50.936;4.654;2023-02-04T04:10:03;10.90;99.90
26336;DHT22;14047;50.936;4.654;2023-02-04T04:12:29;10.70;99.90
26336;DHT22;14047;50.936;4.654;2023-02-04T04:14:55;10.60;99.90
26336;DHT22;14047;50.936;4.654;2023-02-04T04:17:21;10.70;99.90
26336;DHT22;14047;50.936;4.654;2023-02-04T04:19:47;10.80;99.90
26336;DHT22;14047;50.936;4.654;2023-02-04T04:22:14;10.90;99.90
26336;DHT22;14047;50.936;4.654;2023-02-04T04:24:40;10.90;99.90
26336;DHT22;14047;50.936;4.654;2023-02-04T04:27:08;11.00;99.90
26336;DHT22;14047;50.936;4.654;2023-02-04T04:29:34;10.90;99.90
26336;DHT22;14047;50.936;4.654;2023-02-04T04:32:00;10.80;99.90
26336;DHT22;14047;50.936;4.654;2023-02-04T04:34:26;10.80;99.90
26336;DHT22;14047;50.936;4.654;2023-02-04T04:36:52;10.80;99.90
26336;DHT22;14047;50.936;4.654;2023-02-04T04:39:18;10.80;99.90
26336;DHT22;14047;50.936;4.654;2023-02-04T04:41:44;10.80;99.90
26336;DHT22;14047;50.936;4.654;2023-02-04T04:44:10;10.80;99.90
26336;DHT22;14047;50.936;4.654;2023-02-04T04:46:36;10.70;99.90
26336;DHT22;14047;50.936;4.654;2023-02-04T04:49:02;10.70;99.90
26336;DHT22;14047;50.936;4.654;2023-02-04T04:51:29;10.60;99.90
26336;DHT22;14047;50.936;4.654;2023-02-04T04:53:57;10.40;99.90
26336;DHT22;14047;50.936;4.654;2023-02-04T04:56:23;10.30;99.90
26336;DHT22;14047;50.936;4.654;2023-02-04T04:58:49;10.30;99.90
26336;DHT22;14047;50.936;4.654;2023-02-04T05:01:16;9.90;99.90
26336;DHT22;14047;50.936;4.654;2023-02-04T05:03:42;9.70;99.90
26336;DHT22;14047;50.936;4.654;2023-02-04T05:06:07;9.80;99.90
26336;DHT22;14047;50.936;4.654;2023-02-04T05:08:34;9.90;99.90
26336;DHT22;14047;50.936;4.654;2023-02-04T05:11:01;9.80;99.90
26336;DHT22;14047;50.936;4.654;2023-02-04T05:13:27;9.70;99.90
26336;DHT22;14047;50.936;4.654;2023-02-04T05:15:53;9.60;99.90
26336;DHT22;14047;50.936;4.654;2023-02-04T05:18:19;9.40;99.90
26336;DHT22;14047;50.936;4.654;2023-02-04T05:20:46;9.40;99.90
26336;DHT22;14047;50.936;4.654;2023-02-04T05:23:12;9.50;99.90
26336;DHT22;14047;50.936;4.654;2023-02-04T05:25:38;9.60;99.90
26336;DHT22;14047;50.936;4.654;2023-02-04T05:28:04;9.60;99.90
26336;DHT22;14047;50.936;4.654;2023-02-04T05:30:30;9.70;99.90
26336;DHT22;14047;50.936;4.654;2023-02-04T05:32:56;9.70;99.90
26336;DHT22;14047;50.936;4.654;2023-02-04T05:35:22;9.70;99.90
26336;DHT22;14047;50.936;4.654;2023-02-04T05:37:48;9.70;99.90
26336;DHT22;14047;50.936;4.654;2023-02-04T05:40:14;9.80;99.90
26336;DHT22;14047;50.936;4.654;2023-02-04T05:42:40;10.00;99.90
26336;DHT22;14047;50.936;4.654;2023-02-04T05:45:10;10.10;99.90
26336;DHT22;14047;50.936;4.654;2023-02-04T05:47:38;10.20;99.90
26336;DHT22;14047;50.936;4.654;2023-02-04T05:50:04;10.30;99.90
26336;DHT22;14047;50.936;4.654;2023-02-04T05:52:31;10.40;99.90
26336;DHT22;14047;50.936;4.654;2023-02-04T05:54:57;10.30;99.90
26336;DHT22;14047;50.936;4.654;2023-02-04T05:57:22;10.20;99.90
26336;DHT22;14047;50.936;4.654;2023-02-04T05:59:48;10.30;99.90
26336;DHT22;14047;50.936;4.654;2023-02-04T06:02:14;10.20;99.90
26336;DHT22;14047;50.936;4.654;2023-02-04T06:04:40;10.00;99.90
26336;DHT22;14047;50.936;4.654;2023-02-04T06:07:06;10.20;99.90
26336;DHT22;14047;50.936;4.654;2023-02-04T06:09:32;10.00;99.90
26336;DHT22;14047;50.936;4.654;2023-02-04T06:11:58;10.00;99.90
26336;DHT22;14047;50.936;4.654;2023-02-04T06:14:24;9.80;99.90
26336;DHT22;14047;50.936;4.654;2023-02-04T06:16:50;9.70;99.90
26336;DHT22;14047;50.936;4.654;2023-02-04T06:19:16;9.50;99.90
26336;DHT22;14047;50.936;4.654;2023-02-04T06:21:42;9.70;99.90
26336;DHT22;14047;50.936;4.654;2023-02-04T06:24:08;9.80;99.90
26336;DHT22;14047;50.936;4.654;2023-02-04T06:26:34;9.90;99.90
26336;DHT22;14047;50.936;4.654;2023-02-04T06:29:00;9.80;99.90
26336;DHT22;14047;50.936;4.654;2023-02-04T06:31:26;9.60;99.90
26336;DHT22;14047;50.936;4.654;2023-02-04T06:33:51;9.70;99.90
26336;DHT22;14047;50.936;4.654;2023-02-04T06:36:17;9.70;99.90
26336;DHT22;14047;50.936;4.654;2023-02-04T06:38:43;9.70;99.90
26336;DHT22;14047;50.936;4.654;2023-02-04T06:41:09;9.80;99.90
26336;DHT22;14047;50.936;4.654;2023-02-04T06:43:35;9.90;99.90
26336;DHT22;14047;50.936;4.654;2023-02-04T06:46:01;9.80;99.90
26336;DHT22;14047;50.936;4.654;2023-02-04T06:48:27;9.70;99.90
26336;DHT22;14047;50.936;4.654;2023-02-04T06:50:53;9.80;99.90
26336;DHT22;14047;50.936;4.654;2023-02-04T06:53:19;10.00;99.90
26336;DHT22;14047;50.936;4.654;2023-02-04T06:55:45;10.20;99.90
26336;DHT22;14047;50.936;4.654;2023-02-04T06:58:11;10.30;99.90
26336;DHT22;14047;50.936;4.654;2023-02-04T07:00:37;10.30;99.90
26336;DHT22;14047;50.936;4.654;2023-02-04T07:03:06;10.20;99.90
26336;DHT22;14047;50.936;4.654;2023-02-04T07:05:32;10.30;99.90
26336;DHT22;14047;50.936;4.654;2023-02-04T07:07:59;10.40;99.90
26336;DHT22;14047;50.936;4.654;2023-02-04T07:10:25;10.50;99.90
26336;DHT22;14047;50.936;4.654;2023-02-04T07:12:51;10.70;99.90
26336;DHT22;14047;50.936;4.654;2023-02-04T07:15:17;10.80;99.90
26336;DHT22;14047;50.936;4.654;2023-02-04T07:17:43;10.80;99.90
26336;DHT22;14047;50.936;4.654;2023-02-04T07:20:10;10.90;99.90
26336;DHT22;14047;50.936;4.654;2023-02-04T07:22:37;11.00;99.90
26336;DHT22;14047;50.936;4.654;2023-02-04T07:25:03;11.00;99.90
26336;DHT22;14047;50.936;4.654;2023-02-04T07:27:29;11.10;99.90
26336;DHT22;14047;50.936;4.654;2023-02-04T07:29:55;11.20;99.90
26336;DHT22;14047;50.936;4.654;2023-02-04T07:32:21;11.20;99.90
26336;DHT22;14047;50.936;4.654;2023-02-04T07:34:47;11.20;99.90
26336;DHT22;14047;50.936;4.654;2023-02-04T07:37:13;11.20;99.90
26336;DHT22;14047;50.936;4.654;2023-02-04T07:39:39;11.20;99.90
26336;DHT22;14047;50.936;4.654;2023-02-04T07:42:05;11.30;99.90
26336;DHT22;14047;50.936;4.654;2023-02-04T07:44:41;11.30;99.90
26336;DHT22;14047;50.936;4.654;2023-02-04T07:47:07;11.40;99.90
26336;DHT22;14047;50.936;4.654;2023-02-04T07:49:33;11.40;99.90
26336;DHT22;14047;50.936;4.654;2023-02-04T07:51:59;11.40;99.90
26336;DHT22;14047;50.936;4.654;2023-02-04T07:54:24;11.40;99.90
26336;DHT22;14047;50.936;4.654;2023-02-04T07:56:50;11.30;99.90
26336;DHT22;14047;50.936;4.654;2023-02-04T07:59:16;11.30;99.90
26336;DHT22;14047;50.936;4.654;2023-02-04T08:01:42;11.30;99.90
26336;DHT22;14047;50.936;4.654;2023-02-04T08:04:08;11.40;99.90
26336;DHT22;14047;50.936;4.654;2023-02-04T08:06:34;11.40;99.90
26336;DHT22;14047;50.936;4.654;2023-02-04T08:09:00;11.40;99.90
26336;DHT22;14047;50.936;4.654;2023-02-04T08:11:26;11.40;99.90
26336;DHT22;14047;50.936;4.654;2023-02-04T08:13:52;11.50;99.90
26336;DHT22;14047;50.936;4.654;2023-02-04T08:16:18;11.60;99.90
26336;DHT22;14047;50.936;4.654;2023-02-04T08:18:44;11.60;99.90
26336;DHT22;14047;50.936;4.654;2023-02-04T08:21:10;11.60;99.90
26336;DHT22;14047;50.936;4.654;2023-02-04T08:23:36;11.70;99.90
26336;DHT22;14047;50.936;4.654;2023-02-04T08:26:10;11.80;99.90
26336;DHT22;14047;50.936;4.654;2023-02-04T08:28:36;11.90;99.90
26336;DHT22;14047;50.936;4.654;2023-02-04T08:31:06;11.90;99.90
26336;DHT22;14047;50.936;4.654;2023-02-04T08:33:37;11.80;99.90
26336;DHT22;14047;50.936;4.654;2023-02-04T08:36:05;11.60;99.90
26336;DHT22;14047;50.936;4.654;2023-02-04T08:38:31;11.50;99.90
26336;DHT22;14047;50.936;4.654;2023-02-04T08:40:57;11.50;99.90
26336;DHT22;14047;50.936;4.654;2023-02-04T08:43:25;11.60;99.90
26336;DHT22;14047;50.936;4.654;2023-02-04T08:45:51;11.60;99.90
26336;DHT22;14047;50.936;4.654;2023-02-04T08:48:17;11.50;99.90
26336;DHT22;14047;50.936;4.654;2023-02-04T08:50:43;11.50;99.90
26336;DHT22;14047;50.936;4.654;2023-02-04T08:53:09;11.10;99.90
26336;DHT22;14047;50.936;4.654;2023-02-04T08:55:35;10.80;99.90
26336;DHT22;14047;50.936;4.654;2023-02-04T08:58:01;10.50;99.90
26336;DHT22;14047;50.936;4.654;2023-02-04T09:00:28;10.30;99.90
26336;DHT22;14047;50.936;4.654;2023-02-04T09:02:54;10.00;99.90
26336;DHT22;14047;50.936;4.654;2023-02-04T09:05:21;10.00;99.90
26336;DHT22;14047;50.936;4.654;2023-02-04T09:07:47;10.10;99.90
26336;DHT22;14047;50.936;4.654;2023-02-04T09:10:12;10.30;99.90
26336;DHT22;14047;50.936;4.654;2023-02-04T09:12:38;10.40;99.90
26336;DHT22;14047;50.936;4.654;2023-02-04T09:15:05;10.50;99.90
26336;DHT22;14047;50.936;4.654;2023-02-04T09:17:31;10.70;99.90
26336;DHT22;14047;50.936;4.654;2023-02-04T09:19:58;10.80;99.90
26336;DHT22;14047;50.936;4.654;2023-02-04T09:22:24;10.90;99.90
26336;DHT22;14047;50.936;4.654;2023-02-04T09:24:50;10.90;99.90
26336;DHT22;14047;50.936;4.654;2023-02-04T09:27:16;11.00;99.90
26336;DHT22;14047;50.936;4.654;2023-02-04T09:29:42;11.30;99.90
26336;DHT22;14047;50.936;4.654;2023-02-04T09:32:08;11.30;99.90
26336;DHT22;14047;50.936;4.654;2023-02-04T09:34:34;11.10;99.90
26336;DHT22;14047;50.936;4.654;2023-02-04T09:37:00;11.30;99.90
26336;DHT22;14047;50.936;4.654;2023-02-04T09:39:30;11.50;99.90
26336;DHT22;14047;50.936;4.654;2023-02-04T09:41:56;11.80;99.90
26336;DHT22;14047;50.936;4.654;2023-02-04T09:44:25;12.00;99.90
26336;DHT22;14047;50.936;4.654;2023-02-04T09:46:55;12.20;99.90
26336;DHT22;14047;50.936;4.654;2023-02-04T09:49:21;12.30;99.90
26336;DHT22;14047;50.936;4.654;2023-02-04T09:51:49;12.40;99.90
26336;DHT22;14047;50.936;4.654;2023-02-04T09:54:20;12.50;99.90
26336;DHT22;14047;50.936;4.654;2023-02-04T09:56:46;12.50;99.90
26336;DHT22;14047;50.936;4.654;2023-02-04T09:59:21;12.50;99.90
26336;DHT22;14047;50.936;4.654;2023-02-04T10:01:56;12.60;99.90
26336;DHT22;14047;50.936;4.654;2023-02-04T10:04:24;12.60;99.90
26336;DHT22;14047;50.936;4.654;2023-02-04T10:06:50;12.70;99.90
26336;DHT22;14047;50.936;4.654;2023-02-04T10:09:17;12.70;99.90
26336;DHT22;14047;50.936;4.654;2023-02-04T10:11:45;12.70;99.90
26336;DHT22;14047;50.936;4.654;2023-02-04T10:14:19;12.80;99.90
26336;DHT22;14047;50.936;4.654;2023-02-04T10:16:57;12.80;99.90
26336;DHT22;14047;50.936;4.654;2023-02-04T10:19:26;12.80;99.90
26336;DHT22;14047;50.936;4.654;2023-02-04T10:21:53;12.70;99.90
26336;DHT22;14047;50.936;4.654;2023-02-04T10:24:24;12.70;99.90
26336;DHT22;14047;50.936;4.654;2023-02-04T10:26:51;12.80;99.90
26336;DHT22;14047;50.936;4.654;2023-02-04T10:29:20;12.90;99.90
26336;DHT22;14047;50.936;4.654;2023-02-04T10:31:49;12.80;99.90
26336;DHT22;14047;50.936;4.654;2023-02-04T10:34:30;12.90;99.90
26336;DHT22;14047;50.936;4.654;2023-02-04T10:36:57;13.00;99.90
26336;DHT22;14047;50.936;4.654;2023-02-04T10:39:28;13.20;99.90
26336;DHT22;14047;50.936;4.654;2023-02-04T10:41:56;13.40;99.90
26336;DHT22;14047;50.936;4.654;2023-02-04T10:44:34;13.40;99.90
26336;DHT22;14047;50.936;4.654;2023-02-04T10:47:12;13.50;99.90
26336;DHT22;14047;50.936;4.654;2023-02-04T10:49:40;13.50;99.90
26336;DHT22;14047;50.936;4.654;2023-02-04T10:52:17;13.20;99.90
26336;DHT22;14047;50.936;4.654;2023-02-04T10:54:44;13.10;99.90
26336;DHT22;14047;50.936;4.654;2023-02-04T10:57:26;13.10;99.90
26336;DHT22;14047;50.936;4.654;2023-02-04T10:59:56;13.00;99.90
26336;DHT22;14047;50.936;4.654;2023-02-04T11:05:30;12.70;99.90
26336;DHT22;14047;50.936;4.654;2023-02-04T11:07:57;12.40;99.90
26336;DHT22;14047;50.936;4.654;2023-02-04T11:10:30;12.20;99.90
26336;DHT22;14047;50.936;4.654;2023-02-04T11:18:26;11.90;99.90
26336;DHT22;14047;50.936;4.654;2023-02-04T11:20:55;11.70;99.90
26336;DHT22;14047;50.936;4.654;2023-02-04T11:26:09;11.70;99.90
26336;DHT22;14047;50.936;4.654;2023-02-04T11:33:44;11.50;99.90
26336;DHT22;14047;50.936;4.654;2023-02-04T11:36:11;11.40;99.90
26336;DHT22;14047;50.936;4.654;2023-02-04T11:38:46;11.20;99.90
26336;DHT22;14047;50.936;4.654;2023-02-04T11:41:26;11.40;99.90
26336;DHT22;14047;50.936;4.654;2023-02-04T11:43:54;11.60;99.90
26336;DHT22;14047;50.936;4.654;2023-02-04T11:46:22;11.80;99.90
26336;DHT22;14047;50.936;4.654;2023-02-04T11:48:56;12.10;99.90
26336;DHT22;14047;50.936;4.654;2023-02-04T11:51:28;12.30;99.90
26336;DHT22;14047;50.936;4.654;2023-02-04T11:53:55;12.70;99.90
26336;DHT22;14047;50.936;4.654;2023-02-04T11:56:22;12.70;99.90
26336;DHT22;14047;50.936;4.654;2023-02-04T11:58:49;12.80;99.90
26336;DHT22;14047;50.936;4.654;2023-02-04T12:01:20;12.90;99.90
26336;DHT22;14047;50.936;4.654;2023-02-04T12:03:49;13.00;99.90
26336;DHT22;14047;50.936;4.654;2023-02-04T12:06:25;12.90;99.90
26336;DHT22;14047;50.936;4.654;2023-02-04T12:08:52;12.80;99.90
26336;DHT22;14047;50.936;4.654;2023-02-04T12:11:29;13.00;99.90
26336;DHT22;14047;50.936;4.654;2023-02-04T12:13:57;12.60;99.90
26336;DHT22;14047;50.936;4.654;2023-02-04T12:16:24;12.60;99.90
26336;DHT22;14047;50.936;4.654;2023-02-04T12:18:50;12.50;99.90
26336;DHT22;14047;50.936;4.654;2023-02-04T12:21:16;12.30;99.90
26336;DHT22;14047;50.936;4.654;2023-02-04T12:23:43;12.10;99.90
26336;DHT22;14047;50.936;4.654;2023-02-04T12:26:10;12.00;99.90
26336;DHT22;14047;50.936;4.654;2023-02-04T12:28:36;11.90;99.90
26336;DHT22;14047;50.936;4.654;2023-02-04T12:31:02;12.10;99.90
26336;DHT22;14047;50.936;4.654;2023-02-04T12:33:28;12.10;99.90
26336;DHT22;14047;50.936;4.654;2023-02-04T12:35:54;12.20;99.90
26336;DHT22;14047;50.936;4.654;2023-02-04T12:38:20;12.10;99.90
26336;DHT22;14047;50.936;4.654;2023-02-04T12:40:46;12.20;99.90
26336;DHT22;14047;50.936;4.654;2023-02-04T12:43:13;12.20;99.90
26336;DHT22;14047;50.936;4.654;2023-02-04T12:45:39;12.10;99.90
26336;DHT22;14047;50.936;4.654;2023-02-04T12:48:10;12.20;99.90
26336;DHT22;14047;50.936;4.654;2023-02-04T12:50:37;12.30;99.90
26336;DHT22;14047;50.936;4.654;2023-02-04T12:53:03;12.70;99.90
26336;DHT22;14047;50.936;4.654;2023-02-04T12:55:31;12.90;99.90
26336;DHT22;14047;50.936;4.654;2023-02-04T12:57:57;12.90;99.90
26336;DHT22;14047;50.936;4.654;2023-02-04T13:00:23;12.90;99.90
26336;DHT22;14047;50.936;4.654;2023-02-04T13:02:49;12.70;99.90
26336;DHT22;14047;50.936;4.654;2023-02-04T13:05:15;12.50;99.90
26336;DHT22;14047;50.936;4.654;2023-02-04T13:07:41;12.20;99.90
26336;DHT22;14047;50.936;4.654;2023-02-04T13:10:08;12.00;99.90
26336;DHT22;14047;50.936;4.654;2023-02-04T13:12:34;11.80;99.90
26336;DHT22;14047;50.936;4.654;2023-02-04T13:15:01;11.90;99.90
26336;DHT22;14047;50.936;4.654;2023-02-04T13:17:27;11.90;99.90
26336;DHT22;14047;50.936;4.654;2023-02-04T13:19:53;12.00;99.90
26336;DHT22;14047;50.936;4.654;2023-02-04T13:22:19;12.20;99.90
26336;DHT22;14047;50.936;4.654;2023-02-04T13:24:45;12.40;99.90
26336;DHT22;14047;50.936;4.654;2023-02-04T13:27:11;12.50;99.90
26336;DHT22;14047;50.936;4.654;2023-02-04T13:29:36;12.50;99.90
26336;DHT22;14047;50.936;4.654;2023-02-04T13:32:03;12.70;99.90
26336;DHT22;14047;50.936;4.654;2023-02-04T13:34:29;12.90;99.90
26336;DHT22;14047;50.936;4.654;2023-02-04T13:36:54;13.10;99.90
26336;DHT22;14047;50.936;4.654;2023-02-04T13:39:20;13.30;99.90
26336;DHT22;14047;50.936;4.654;2023-02-04T13:41:46;13.40;99.90
26336;DHT22;14047;50.936;4.654;2023-02-04T13:44:12;13.20;99.90
26336;DHT22;14047;50.936;4.654;2023-02-04T13:46:39;13.00;99.90
26336;DHT22;14047;50.936;4.654;2023-02-04T13:49:06;12.90;99.90
26336;DHT22;14047;50.936;4.654;2023-02-04T13:51:32;13.10;99.90
26336;DHT22;14047;50.936;4.654;2023-02-04T13:53:58;13.30;99.90
26336;DHT22;14047;50.936;4.654;2023-02-04T13:56:28;13.30;99.90
26336;DHT22;14047;50.936;4.654;2023-02-04T13:58:55;13.30;99.90
26336;DHT22;14047;50.936;4.654;2023-02-04T14:01:21;13.50;99.90
26336;DHT22;14047;50.936;4.654;2023-02-04T14:03:47;13.40;99.90
26336;DHT22;14047;50.936;4.654;2023-02-04T14:06:13;13.30;99.90
26336;DHT22;14047;50.936;4.654;2023-02-04T14:08:39;13.40;99.90
26336;DHT22;14047;50.936;4.654;2023-02-04T14:11:05;13.40;99.90
26336;DHT22;14047;50.936;4.654;2023-02-04T14:13:32;13.40;99.90
26336;DHT22;14047;50.936;4.654;2023-02-04T14:15:58;13.30;99.90
26336;DHT22;14047;50.936;4.654;2023-02-04T14:18:24;13.30;99.90
26336;DHT22;14047;50.936;4.654;2023-02-04T14:20:50;13.40;99.90
26336;DHT22;14047;50.936;4.654;2023-02-04T14:23:16;13.50;99.90
26336;DHT22;14047;50.936;4.654;2023-02-04T14:25:41;13.60;99.90
26336;DHT22;14047;50.936;4.654;2023-02-04T14:28:08;13.70;99.90
26336;DHT22;14047;50.936;4.654;2023-02-04T14:30:34;13.60;99.90
26336;DHT22;14047;50.936;4.654;2023-02-04T14:33:00;13.70;99.90
26336;DHT22;14047;50.936;4.654;2023-02-04T14:35:26;13.50;99.90
26336;DHT22;14047;50.936;4.654;2023-02-04T14:37:52;13.50;99.90
26336;DHT22;14047;50.936;4.654;2023-02-04T14:40:18;13.60;99.90
26336;DHT22;14047;50.936;4.654;2023-02-04T14:42:45;13.60;99.90
26336;DHT22;14047;50.936;4.654;2023-02-04T14:45:12;13.70;99.90
26336;DHT22;14047;50.936;4.654;2023-02-04T14:47:39;13.80;99.90
26336;DHT22;14047;50.936;4.654;2023-02-04T14:50:07;13.70;99.90
26336;DHT22;14047;50.936;4.654;2023-02-04T14:52:33;13.70;99.90
26336;DHT22;14047;50.936;4.654;2023-02-04T14:54:59;13.50;99.90
26336;DHT22;14047;50.936;4.654;2023-02-04T14:57:25;13.50;99.90
26336;DHT22;14047;50.936;4.654;2023-02-04T14:59:51;13.60;99.90
26336;DHT22;14047;50.936;4.654;2023-02-04T15:02:17;13.70;99.90
26336;DHT22;14047;50.936;4.654;2023-02-04T15:04:44;13.70;99.90
26336;DHT22;14047;50.936;4.654;2023-02-04T15:07:11;13.60;99.90
26336;DHT22;14047;50.936;4.654;2023-02-04T15:09:38;13.50;99.90
26336;DHT22;14047;50.936;4.654;2023-02-04T15:12:04;13.50;99.90
26336;DHT22;14047;50.936;4.654;2023-02-04T15:14:30;13.50;99.90
26336;DHT22;14047;50.936;4.654;2023-02-04T15:16:56;13.40;99.90
26336;DHT22;14047;50.936;4.654;2023-02-04T15:19:22;13.40;99.90
26336;DHT22;14047;50.936;4.654;2023-02-04T15:21:50;13.50;99.90
26336;DHT22;14047;50.936;4.654;2023-02-04T15:24:17;13.40;99.90
26336;DHT22;14047;50.936;4.654;2023-02-04T15:26:43;13.50;99.90
26336;DHT22;14047;50.936;4.654;2023-02-04T15:29:08;13.50;99.90
26336;DHT22;14047;50.936;4.654;2023-02-04T15:31:34;13.50;99.90
26336;DHT22;14047;50.936;4.654;2023-02-04T15:34:00;13.50;99.90
26336;DHT22;14047;50.936;4.654;2023-02-04T15:36:27;13.50;99.90
26336;DHT22;14047;50.936;4.654;2023-02-04T15:38:53;13.50;99.90
26336;DHT22;14047;50.936;4.654;2023-02-04T15:41:19;13.50;99.90
26336;DHT22;14047;50.936;4.654;2023-02-04T15:43:45;13.60;99.90
26336;DHT22;14047;50.936;4.654;2023-02-04T15:46:13;13.60;99.90
26336;DHT22;14047;50.936;4.654;2023-02-04T15:48:39;13.40;99.90
26336;DHT22;14047;50.936;4.654;2023-02-04T15:51:06;13.20;99.90